Ionic Kleos — V7DX4 — position and weather

sailwx.info

Track history (hours):
 
Tides and Currents Weather Stations Pressure Air Temp Water Temp Dewpoint Dewpoint Depression Visibility Wind Speed Wind Dir Waves Ship Positions

Ionic Kleos

Last reported at 2018-May-31 06:23 UTC. Time now 2018-Jun-23 07:47 UTC.
Position N 28°00' W 016°20'.
Warning: this ship's position is 23 days out of date.

Length 229 m; draft 7.2 m.

Type: Cargo ship. MMSI: 538005444.

Date/timePositionNaut miles runAvg speedWind from/ knotsBaromVisibWave heightAir tempDewpointWater temp
2018-May-31 06:23N 28°00' W 016°20'514.7
2018-May-31 06:00N 28°05' W 016°16'814.6
2018-May-31 05:29N 28°10' W 016°11'714.4
2018-May-31 05:01N 28°16' W 016°06'714.3
2018-May-31 04:31N 28°21' W 016°01'714.0
2018-May-31 04:00N 28°26' W 015°55'713.8
2018-May-31 03:30N 28°32' W 015°50'713.8
2018-May-31 03:01N 28°37' W 015°45'714.0
2018-May-31 02:31N 28°41' W 015°39'714.2
2018-May-31 02:01N 28°46' W 015°33'714.3
2018-May-31 01:30N 28°50' W 015°26'714.2
2018-May-31 01:00N 28°55' W 015°20'713.9
2018-May-31 00:30N 28°59' W 015°14'1713.8
2018-May-30 23:17N 29°10' W 014°59'62613.2
2018-May-28 23:56N 35°58' W 005°36'511.9
2018-May-28 23:30N 35°59' W 005°30'510.3
2018-May-28 23:00N 36°01' W 005°24'510.4
2018-May-28 22:30N 36°06' W 005°22'1 1.0
2018-May-28 21:58N 36°07' W 005°22'0 0.1
2018-May-28 21:28N 36°07' W 005°22'0 0.2
2018-May-28 20:19N 36°07' W 005°22'0 0.0
2018-May-28 19:55N 36°07' W 005°22'0 0.1
2018-May-28 19:13N 36°07' W 005°22'0 0.1
2018-May-28 18:55N 36°07' W 005°22'0 0.0
2018-May-28 18:28N 36°07' W 005°22'0 0.1
2018-May-28 17:37N 36°07' W 005°22'0 0.2
2018-May-28 17:28N 36°07' W 005°22'0 0.0
2018-May-28 15:43N 36°07' W 005°22'0 0.1
2018-May-28 15:28N 36°07' W 005°22'0 0.0
2018-May-28 14:58N 36°07' W 005°22'0 0.2
2018-May-28 14:26N 36°07' W 005°22'0 0.8
2018-May-28 14:01N 36°07' W 005°22'2 4.0
2018-May-28 13:30N 36°05' W 005°20'1 1.1
2018-May-28 12:58N 36°05' W 005°20'2 4.4
2018-May-28 12:30N 36°04' W 005°17'510.9
2018-May-28 12:00N 36°04' W 005°11'2 1.8
2018-May-28 10:57N 36°06' W 005°10'1 2.0
2018-May-28 10:30N 36°06' W 005°11'2 3.4
2018-May-28 10:01N 36°07' W 005°13'1 2.3
2018-May-28 09:30N 36°06' W 005°14'2 1.6
2018-May-28 08:13N 36°04' W 005°15'1 4.6
2018-May-28 08:01N 36°04' W 005°13'21611.6
2018-May-27 13:27N 37°27' W 001°05'  
2018-May-21 15:54N 37°33' W 001°04'  
Track history (hours):
 
Tides and Currents Weather Stations Pressure Air Temp Water Temp Dewpoint Dewpoint Depression Visibility Wind Speed Wind Dir Waves Ship Positions

Ionic Kleos

Last reported at 2018-May-31 06:23 UTC. Time now 2018-Jun-23 07:47 UTC.
Position N 28°00' W 016°20'.
Warning: this ship's position is 23 days out of date.

Length 229 m; draft 7.2 m.

Type: Cargo ship. MMSI: 538005444.

Date/timePositionNaut miles runAvg speedWind from/ knotsBaromVisibWave heightAir tempDewpointWater temp
2018-May-31 06:23N 28°00' W 016°20'514.7
2018-May-31 06:00N 28°05' W 016°16'814.6
2018-May-31 05:29N 28°10' W 016°11'714.4
2018-May-31 05:01N 28°16' W 016°06'714.3
2018-May-31 04:31N 28°21' W 016°01'714.0
2018-May-31 04:00N 28°26' W 015°55'713.8
2018-May-31 03:30N 28°32' W 015°50'713.8
2018-May-31 03:01N 28°37' W 015°45'714.0
2018-May-31 02:31N 28°41' W 015°39'714.2
2018-May-31 02:01N 28°46' W 015°33'714.3
2018-May-31 01:30N 28°50' W 015°26'714.2
2018-May-31 01:00N 28°55' W 015°20'713.9
2018-May-31 00:30N 28°59' W 015°14'1713.8
2018-May-30 23:17N 29°10' W 014°59'62613.2
2018-May-28 23:56N 35°58' W 005°36'511.9
2018-May-28 23:30N 35°59' W 005°30'510.3
2018-May-28 23:00N 36°01' W 005°24'510.4
2018-May-28 22:30N 36°06' W 005°22'1 1.0
2018-May-28 21:58N 36°07' W 005°22'0 0.1
2018-May-28 21:28N 36°07' W 005°22'0 0.2
2018-May-28 20:19N 36°07' W 005°22'0 0.0
2018-May-28 19:55N 36°07' W 005°22'0 0.1
2018-May-28 19:13N 36°07' W 005°22'0 0.1
2018-May-28 18:55N 36°07' W 005°22'0 0.0
2018-May-28 18:28N 36°07' W 005°22'0 0.1
2018-May-28 17:37N 36°07' W 005°22'0 0.2
2018-May-28 17:28N 36°07' W 005°22'0 0.0
2018-May-28 15:43N 36°07' W 005°22'0 0.1
2018-May-28 15:28N 36°07' W 005°22'0 0.0
2018-May-28 14:58N 36°07' W 005°22'0 0.2
2018-May-28 14:26N 36°07' W 005°22'0 0.8
2018-May-28 14:01N 36°07' W 005°22'2 4.0
2018-May-28 13:30N 36°05' W 005°20'1 1.1
2018-May-28 12:58N 36°05' W 005°20'2 4.4
2018-May-28 12:30N 36°04' W 005°17'510.9
2018-May-28 12:00N 36°04' W 005°11'2 1.8
2018-May-28 10:57N 36°06' W 005°10'1 2.0
2018-May-28 10:30N 36°06' W 005°11'2 3.4
2018-May-28 10:01N 36°07' W 005°13'1 2.3
2018-May-28 09:30N 36°06' W 005°14'2 1.6
2018-May-28 08:13N 36°04' W 005°15'1 4.6
2018-May-28 08:01N 36°04' W 005°13'21611.6
2018-May-27 13:27N 37°27' W 001°05'  
2018-May-21 15:54N 37°33' W 001°04'  

Dump ship's entire track history